Grand Benelux — IBTB — position and weather

sailwx.info

Track history (hours):
 
Tides and Currents Weather Stations Pressure Air Temp Water Temp Dewpoint Dewpoint Depression Visibility Wind Speed Wind Dir Waves Ship Positions

Grand Benelux

Last reported at 2018-Feb-18 18:56 UTC. Time now 2018-Feb-20 14:06 UTC.
Position N 36°30' W 008°55'.

Length 177 m; draft 8.3 m.

Type: Cargo ship. MMSI: 247039400.

Date/timePositionNaut miles runAvg speedWind from/ knotsBaromVisibWave heightAir tempDewpointWater temp
2018-Feb-18 18:56N 36°30' W 008°55'715.6
2018-Feb-18 18:30N 36°31' W 009°03'815.5
2018-Feb-18 18:00N 36°33' W 009°12'715.0
2018-Feb-18 17:30N 36°37' W 009°20'1315.8
2018-Feb-18 16:41N 36°47' W 009°31'1115.5
2018-Feb-18 15:59N 36°57' W 009°35'1315.9
2018-Feb-18 15:11N 37°10' W 009°39'315.8
2018-Feb-18 15:00N 37°12' W 009°40'1916.0
2018-Feb-18 13:49N 37°31' W 009°45'615.7
2018-Feb-18 13:26N 37°37' W 009°47'1015.8
2018-Feb-18 12:49N 37°46' W 009°49'1516.0
2018-Feb-18 11:52N 38°01' W 009°55'716.2
2018-Feb-18 11:25N 38°08' W 009°57'816.1
2018-Feb-18 10:54N 38°16' W 009°59'616.4
2018-Feb-18 10:31N 38°22' W 010°00'816.7
2018-Feb-18 10:00N 38°31' W 010°03'816.4
2018-Feb-18 09:31N 38°39' W 010°05'816.1
2018-Feb-18 09:00N 38°47' W 010°06'816.2
2018-Feb-18 08:30N 38°55' W 010°07'816.4
2018-Feb-18 08:00N 39°03' W 010°07'816.2
2018-Feb-18 07:30N 39°11' W 010°08'815.7
2018-Feb-18 07:00N 39°19' W 010°08'815.6
2018-Feb-18 06:29N 39°27' W 010°08'715.5
2018-Feb-18 06:00N 39°34' W 010°08'54315.1
2018-Feb-16 18:02N 48°12' W 006°19'314.9
2018-Feb-16 17:52N 48°14' W 006°17'614.5
2018-Feb-16 17:26N 48°20' W 006°13'813.9
2018-Feb-16 16:51N 48°27' W 006°08'513.6
2018-Feb-16 16:28N 48°32' W 006°04'1313.2
2018-Feb-16 15:30N 48°43' W 005°55'813.1
2018-Feb-16 14:56N 48°50' W 005°49'612.8
2018-Feb-16 14:30N 48°54' W 005°43'813.3
2018-Feb-16 13:56N 48°57' W 005°33'813.8
2018-Feb-16 13:23N 49°02' W 005°24'914.6
2018-Feb-16 12:48N 49°06' W 005°13'414.8
2018-Feb-16 12:30N 49°08' W 005°07'1015.4
2018-Feb-16 11:53N 49°13' W 004°55'1915.7
2018-Feb-16 10:41N 49°23' W 004°30'4014.9
2018-Feb-16 08:01N 49°43' W 003°37'013.8
2018-Feb-16 08:00N 49°43' W 003°37'713.4
2018-Feb-16 07:30N 49°46' W 003°28'713.1
2018-Feb-16 07:00N 49°50' W 003°19'612.8
2018-Feb-16 06:30N 49°53' W 003°11'713.1
2018-Feb-16 06:00N 49°56' W 003°02'713.1
2018-Feb-16 05:31N 49°59' W 002°53'713.8
2018-Feb-16 05:00N 50°01' W 002°42'814.7
2018-Feb-16 04:29N 50°03' W 002°30'815.7
2018-Feb-16 03:57N 50°06' W 002°18'716.8
2018-Feb-16 03:30N 50°08' W 002°07'917.6
2018-Feb-16 03:00N 50°11' W 001°55'918.3
2018-Feb-16 02:30N 50°13' W 001°41'918.3
2018-Feb-16 02:01N 50°15' W 001°27'917.9
2018-Feb-16 01:30N 50°18' W 001°13'2516.8
2018-Feb-15 23:59N 50°25' W 000°35'815.6
2018-Feb-15 23:30N 50°26' W 000°23'714.9
2018-Feb-15 23:00N 50°27' W 000°12'714.3
2018-Feb-15 22:30N 50°29' W 000°01'713.8
2018-Feb-15 22:00N 50°30' E 000°10'713.5
2018-Feb-15 21:30N 50°32' E 000°20'713.5
2018-Feb-15 21:00N 50°34' E 000°30'713.4
2018-Feb-15 20:30N 50°37' E 000°39'714.6
2018-Feb-15 20:00N 50°42' E 000°48'815.4
2018-Feb-15 19:30N 50°47' E 000°57'816.6
2018-Feb-15 19:01N 50°53' E 001°07'917.2
2018-Feb-15 18:30N 50°59' E 001°17'917.9
2018-Feb-15 18:00N 51°04' E 001°28'917.3
2018-Feb-15 17:30N 51°10' E 001°39'817.0
2018-Feb-15 17:00N 51°16' E 001°47'816.2
2018-Feb-15 16:30N 51°23' E 001°55'713.7
2018-Feb-15 16:00N 51°23' E 002°06'815.7
2018-Feb-15 15:31N 51°20' E 002°18'815.1
2018-Feb-15 15:00N 51°23' E 002°30'815.3
2018-Feb-15 14:30N 51°23' E 002°42'4 7.9
2018-Feb-15 14:00N 51°22' E 002°48'714.3
2018-Feb-15 13:30N 51°23' E 002°59'713.6
2018-Feb-15 13:00N 51°24' E 003°10'714.0
2018-Feb-15 12:30N 51°24' E 003°21'612.8
2018-Feb-15 12:00N 51°25' E 003°32'4 7.7
2018-Feb-15 11:30N 51°26' E 003°37'5 9.9
2018-Feb-15 11:00N 51°23' E 003°43'612.3
2018-Feb-15 10:30N 51°21' E 003°53'612.5
2018-Feb-15 10:00N 51°26' E 003°59'611.6
2018-Feb-15 09:31N 51°22' E 004°06'510.0
2018-Feb-15 09:00N 51°22' E 004°14'4 8.6
2018-Feb-15 08:30N 51°17' E 004°16'1 1.7
2018-Feb-15 08:00N 51°17' E 004°15'0 0.0
2018-Feb-15 07:30N 51°17' E 004°15'1 1.6
2018-Feb-15 07:00N 51°17' E 004°14'1 1.3
2018-Feb-15 06:29N 51°16' E 004°13'0 0.0
2018-Feb-15 05:59N 51°16' E 004°13'0 0.0
2018-Feb-15 05:23N 51°16' E 004°13'0 0.0
2018-Feb-15 04:59N 51°16' E 004°13'0 0.0
2018-Feb-15 04:26N 51°16' E 004°13'0 0.0
2018-Feb-15 03:59N 51°16' E 004°13'0 0.0
2018-Feb-15 03:26N 51°16' E 004°13'0 0.0
2018-Feb-15 02:59N 51°16' E 004°13'0 0.0
2018-Feb-15 02:29N 51°16' E 004°13'0 0.0
2018-Feb-15 01:59N 51°16' E 004°13'0 0.0
2018-Feb-15 01:29N 51°16' E 004°13'0 0.0
2018-Feb-15 00:59N 51°16' E 004°13'0 0.0
2018-Feb-15 00:29N 51°16' E 004°13'0 0.0
2018-Feb-14 23:59N 51°16' E 004°13'0 0.0
2018-Feb-14 23:29N 51°16' E 004°13'0 0.0
2018-Feb-14 22:59N 51°16' E 004°13'0 0.0
2018-Feb-14 22:29N 51°16' E 004°13'0 0.0
2018-Feb-14 21:59N 51°16' E 004°13'0 0.0
2018-Feb-14 21:29N 51°16' E 004°13'0 0.0
2018-Feb-14 20:59N 51°16' E 004°13'0 0.0
2018-Feb-14 20:29N 51°16' E 004°13'0 0.0
2018-Feb-14 19:59N 51°16' E 004°13'0 0.0
2018-Feb-14 19:26N 51°16' E 004°13'0 0.0
2018-Feb-14 18:56N 51°16' E 004°13'0 0.0
2018-Feb-14 18:29N 51°16' E 004°13'0 0.0
2018-Feb-14 17:56N 51°16' E 004°13'0 0.0
2018-Feb-14 17:29N 51°16' E 004°13'0 0.0
2018-Feb-14 16:59N 51°16' E 004°13'0 0.0
2018-Feb-14 16:29N 51°16' E 004°13'0 0.0
2018-Feb-14 15:59N 51°16' E 004°13'0 0.0
2018-Feb-14 15:29N 51°16' E 004°13'0 0.0
2018-Feb-14 14:59N 51°16' E 004°13'0 0.0
2018-Feb-14 14:29N 51°16' E 004°13'0 0.0
2018-Feb-14 13:59N 51°16' E 004°13'0 0.0
2018-Feb-14 13:29N 51°16' E 004°13'0 0.0
2018-Feb-14 12:59N 51°16' E 004°13'0 0.0
2018-Feb-14 12:29N 51°16' E 004°13'0 0.0
2018-Feb-14 11:56N 51°16' E 004°13'0 0.0
2018-Feb-14 11:29N 51°16' E 004°13'0 0.0
2018-Feb-14 10:59N 51°16' E 004°13'0 0.0
2018-Feb-14 10:26N 51°16' E 004°13'0 0.0
2018-Feb-14 09:59N 51°16' E 004°13'0 0.0
2018-Feb-14 09:29N 51°16' E 004°13'0 0.0
2018-Feb-14 08:59N 51°16' E 004°13'0 0.0
2018-Feb-14 08:29N 51°16' E 004°13'0 0.0
2018-Feb-14 07:59N 51°16' E 004°13'0 0.0
2018-Feb-14 07:29N 51°16' E 004°13'0 0.0
2018-Feb-14 06:56N 51°16' E 004°13'0 0.0
2018-Feb-14 06:29N 51°16' E 004°13'0 0.0
2018-Feb-14 05:59N 51°16' E 004°13'0 0.0
2018-Feb-14 05:29N 51°16' E 004°13'0 0.0
2018-Feb-14 04:59N 51°16' E 004°13'0 0.0
2018-Feb-14 04:29N 51°16' E 004°13'0 0.0
2018-Feb-14 03:59N 51°16' E 004°13'0 0.0
2018-Feb-14 03:29N 51°16' E 004°13'0 0.0
2018-Feb-14 02:59N 51°16' E 004°13'0 0.0
2018-Feb-14 02:29N 51°16' E 004°13'0 0.0
2018-Feb-14 01:59N 51°16' E 004°13'0 0.0
2018-Feb-14 01:29N 51°16' E 004°13'0 0.0
2018-Feb-14 00:59N 51°16' E 004°13'0 0.0
2018-Feb-14 00:29N 51°16' E 004°13'0 0.0
2018-Feb-13 23:59N 51°16' E 004°13'0 0.0
2018-Feb-13 23:29N 51°16' E 004°13'1 1.2
2018-Feb-13 23:00N 51°17' E 004°13'2 4.4
2018-Feb-13 22:30N 51°16' E 004°17'0 0.0
2018-Feb-13 22:00N 51°16' E 004°17'1 1.8
2018-Feb-13 21:31N 51°16' E 004°18'4 7.9
2018-Feb-13 21:01N 51°20' E 004°17'510.6
2018-Feb-13 20:30N 51°23' E 004°10'611.3
2018-Feb-13 20:01N 51°25' E 004°02'612.3
2018-Feb-13 19:31N 51°22' E 003°54'611.9
2018-Feb-13 18:59N 51°22' E 003°44'511.1
2018-Feb-13 18:30N 51°26' E 003°38'510.4
2018-Feb-13 18:00N 51°25' E 003°30'1 2.5
2018-Feb-13 17:30N 51°26' E 003°32'4 7.8
2018-Feb-13 17:00N 51°26' E 003°38'2 4.6
2018-Feb-13 16:28N 51°28' E 003°41'0 0.0
2018-Feb-13 15:55N 51°28' E 003°41'0 0.0
2018-Feb-13 15:28N 51°28' E 003°41'0 0.0
2018-Feb-13 14:55N 51°28' E 003°41'0 0.0
2018-Feb-13 14:25N 51°28' E 003°41'0 0.0
2018-Feb-13 13:55N 51°28' E 003°41'0 0.0
2018-Feb-13 13:22N 51°28' E 003°41'0 0.0
2018-Feb-13 12:55N 51°28' E 003°41'0 0.0
2018-Feb-13 12:25N 51°28' E 003°41'0 0.0
2018-Feb-13 11:58N 51°28' E 003°41'0 0.0
2018-Feb-13 11:25N 51°28' E 003°41'0 0.0
2018-Feb-13 10:58N 51°28' E 003°41'0 0.0
2018-Feb-13 10:28N 51°28' E 003°41'0 0.0
2018-Feb-13 09:58N 51°28' E 003°41'0 0.0
2018-Feb-13 09:28N 51°28' E 003°41'0 0.0
2018-Feb-13 08:58N 51°28' E 003°41'0 0.0
2018-Feb-13 08:28N 51°28' E 003°41'0 0.0
2018-Feb-13 07:58N 51°28' E 003°41'0 0.0
2018-Feb-13 07:19N 51°28' E 003°41'0 0.0
2018-Feb-13 06:58N 51°28' E 003°41'0 0.0
2018-Feb-13 06:28N 51°28' E 003°41'0 0.0
2018-Feb-13 05:58N 51°28' E 003°41'0 0.0
2018-Feb-13 05:28N 51°28' E 003°41'0 0.0
2018-Feb-13 04:55N 51°28' E 003°41'0 0.0
2018-Feb-13 04:28N 51°28' E 003°41'0 0.0
2018-Feb-13 03:55N 51°28' E 003°41'0 0.0
2018-Feb-13 03:28N 51°28' E 003°41'0 0.0
2018-Feb-13 02:58N 51°28' E 003°41'0 0.0
2018-Feb-13 02:28N 51°28' E 003°41'0 0.0
2018-Feb-13 01:55N 51°28' E 003°41'0 0.0
2018-Feb-13 01:25N 51°28' E 003°41'0 0.0
2018-Feb-13 00:58N 51°28' E 003°41'0 0.0
2018-Feb-13 00:19N 51°28' E 003°41'0 0.0
2018-Feb-12 23:58N 51°28' E 003°41'0 0.0
2018-Feb-12 23:25N 51°28' E 003°41'0 0.0
2018-Feb-12 22:58N 51°28' E 003°41'0 0.0
2018-Feb-12 22:28N 51°28' E 003°41'0 0.0
2018-Feb-12 21:58N 51°28' E 003°41'0 0.0
2018-Feb-12 21:28N 51°28' E 003°41'0 0.0
2018-Feb-12 20:58N 51°28' E 003°41'0 0.0
2018-Feb-12 20:28N 51°28' E 003°41'0 0.9
2018-Feb-12 20:00N 51°27' E 003°41'3 5.4
2018-Feb-12 19:30N 51°26' E 003°37'713.4
2018-Feb-12 19:00N 51°25' E 003°26'714.8
2018-Feb-12 18:30N 51°25' E 003°15'714.3
2018-Feb-12 18:00N 51°24' E 003°03'510.7
2018-Feb-12 17:30N 51°30' E 003°03'815.4
2018-Feb-12 17:00N 51°36' E 003°10'813.7
2018-Feb-12 16:27N 51°43' E 003°14'2613.5
2018-Feb-12 14:29N 52°09' E 003°22'6313.6
2018-Feb-12 09:50N 53°04' E 004°13'514.7
2018-Feb-12 09:31N 53°07' E 004°19'13712.1
2018-Feb-11 22:09N 54°01' E 007°52'211.9
2018-Feb-11 22:00N 54°01' E 007°55'612.9
2018-Feb-11 21:30N 54°00' E 008°06'712.9
2018-Feb-11 20:59N 54°00' E 008°17'511.3
2018-Feb-11 20:30N 53°59' E 008°26'714.8
2018-Feb-11 20:00N 53°57' E 008°38'713.2
2018-Feb-11 19:30N 53°52' E 008°45'510.9
2018-Feb-11 19:01N 53°51' E 008°54'612.5
2018-Feb-11 18:31N 53°52' E 009°04'611.2
2018-Feb-11 18:01N 53°53' E 009°13'714.1
2018-Feb-11 17:31N 53°48' E 009°23'815.0
2018-Feb-11 17:00N 53°42' E 009°30'612.8
2018-Feb-11 16:31N 53°36' E 009°35'612.4
2018-Feb-11 16:01N 53°34' E 009°44'612.0
2018-Feb-11 15:30N 53°33' E 009°54'3 6.7
2018-Feb-11 14:59N 53°32' E 009°60'0 0.0
2018-Feb-11 14:29N 53°32' E 009°60'0 0.0
2018-Feb-11 13:59N 53°32' E 009°60'0 0.0
2018-Feb-11 13:29N 53°32' E 009°60'0 0.0
2018-Feb-11 12:59N 53°32' E 009°60'0 0.0
2018-Feb-11 12:29N 53°32' E 009°60'0 0.0
2018-Feb-11 11:59N 53°32' E 009°60'0 0.0
2018-Feb-11 11:30N 53°32' E 009°60'0 0.0
2018-Feb-11 11:00N 53°32' E 009°60'0 0.0
2018-Feb-11 10:30N 53°32' E 009°60'0 0.0
2018-Feb-11 10:00N 53°32' E 009°60'0 0.0
2018-Feb-11 09:31N 53°32' E 009°60'0 0.0
2018-Feb-11 09:00N 53°32' E 009°60'0 0.0
2018-Feb-11 08:30N 53°32' E 009°60'0 0.0
2018-Feb-11 08:00N 53°32' E 009°60'0 0.0
2018-Feb-11 07:31N 53°32' E 009°60'0 0.0
2018-Feb-11 07:01N 53°32' E 009°60'0 0.0
2018-Feb-11 06:30N 53°32' E 009°60'0 0.0
2018-Feb-11 06:00N 53°32' E 009°60'0 0.0
2018-Feb-11 05:30N 53°32' E 009°60'0 0.0
2018-Feb-11 05:01N 53°32' E 009°60'0 0.0
2018-Feb-11 04:30N 53°32' E 009°60'0 0.0
2018-Feb-11 04:00N 53°32' E 009°60'0 0.0
2018-Feb-11 03:30N 53°32' E 009°60'0 0.0
2018-Feb-11 03:01N 53°32' E 009°60'0 0.0
2018-Feb-11 02:30N 53°32' E 009°60'0 0.0
2018-Feb-11 02:00N 53°32' E 009°60'0 0.0
2018-Feb-11 01:30N 53°32' E 009°60'0 0.0
2018-Feb-11 01:00N 53°32' E 009°60'0 0.0
2018-Feb-11 00:30N 53°32' E 009°60'0 0.0
2018-Feb-11 00:01N 53°32' E 009°60'0 0.0
2018-Feb-10 23:30N 53°32' E 009°60'0 0.0
2018-Feb-10 23:00N 53°32' E 009°60'0 0.3
2018-Feb-10 22:30N 53°32' E 009°60'2 4.2
2018-Feb-10 22:00N 53°32' E 009°56'3 5.9
2018-Feb-10 21:31N 53°33' E 009°51'4 7.0
2018-Feb-10 21:00N 53°34' E 009°46'611.0
2018-Feb-10 20:30N 53°35' E 009°37'611.1
2018-Feb-10 20:00N 53°40' E 009°31'612.2
2018-Feb-10 19:30N 53°45' E 009°25'713.0
2018-Feb-10 19:00N 53°50' E 009°20'612.7
2018-Feb-10 18:30N 53°53' E 009°10'4 8.8
2018-Feb-10 18:00N 53°52' E 009°03'713.0
2018-Feb-10 17:30N 53°50' E 008°52'611.5
2018-Feb-10 17:00N 53°52' E 008°43'613.1
2018-Feb-10 16:30N 53°58' E 008°36'815.3
2018-Feb-10 16:00N 53°59' E 008°24'815.3
2018-Feb-10 15:30N 53°60' E 008°11'4 7.2
2018-Feb-10 15:00N 53°59' E 008°04'4 7.2
2018-Feb-10 14:30N 53°58' E 007°59'4 7.3
2018-Feb-10 14:00N 53°57' E 007°52'10412.8
2018-Feb-10 05:54N 53°29' E 005°04'716.5
2018-Feb-10 05:29N 53°26' E 004°53'1615.7
2018-Feb-10 04:27N 53°14' E 004°35'816.8
2018-Feb-10 04:00N 53°07' E 004°29'816.5
2018-Feb-10 03:30N 53°00' E 004°23'816.6
2018-Feb-10 03:00N 52°53' E 004°17'916.5
2018-Feb-10 02:29N 52°46' E 004°08'816.5
2018-Feb-10 02:00N 52°40' E 003°59'916.6
2018-Feb-10 01:27N 52°33' E 003°49'916.6
2018-Feb-10 00:55N 52°27' E 003°40'716.6
2018-Feb-10 00:30N 52°22' E 003°32'816.6
2018-Feb-10 00:01N 52°16' E 003°22'3516.2
2018-Feb-09 21:51N 51°51' E 002°42'3715.9
2018-Feb-09 19:31N 51°20' E 002°09'815.1
2018-Feb-09 19:00N 51°13' E 002°04'917.4
2018-Feb-09 18:30N 51°09' E 001°51'917.5
2018-Feb-09 18:00N 51°03' E 001°42'918.2
2018-Feb-09 17:31N 50°56' E 001°32'7015.5
2018-Feb-09 13:00N 50°22' W 000°04'816.9
2018-Feb-09 12:30N 50°25' W 000°16'816.7
2018-Feb-09 12:00N 50°29' W 000°27'  
Track history (hours):
 
Tides and Currents Weather Stations Pressure Air Temp Water Temp Dewpoint Dewpoint Depression Visibility Wind Speed Wind Dir Waves Ship Positions

Grand Benelux

Last reported at 2018-Feb-18 18:56 UTC. Time now 2018-Feb-20 14:06 UTC.
Position N 36°30' W 008°55'.

Length 177 m; draft 8.3 m.

Type: Cargo ship. MMSI: 247039400.

Date/timePositionNaut miles runAvg speedWind from/ knotsBaromVisibWave heightAir tempDewpointWater temp
2018-Feb-18 18:56N 36°30' W 008°55'715.6
2018-Feb-18 18:30N 36°31' W 009°03'815.5
2018-Feb-18 18:00N 36°33' W 009°12'715.0
2018-Feb-18 17:30N 36°37' W 009°20'1315.8
2018-Feb-18 16:41N 36°47' W 009°31'1115.5
2018-Feb-18 15:59N 36°57' W 009°35'1315.9
2018-Feb-18 15:11N 37°10' W 009°39'315.8
2018-Feb-18 15:00N 37°12' W 009°40'1916.0
2018-Feb-18 13:49N 37°31' W 009°45'615.7
2018-Feb-18 13:26N 37°37' W 009°47'1015.8
2018-Feb-18 12:49N 37°46' W 009°49'1516.0
2018-Feb-18 11:52N 38°01' W 009°55'716.2
2018-Feb-18 11:25N 38°08' W 009°57'816.1
2018-Feb-18 10:54N 38°16' W 009°59'616.4
2018-Feb-18 10:31N 38°22' W 010°00'816.7
2018-Feb-18 10:00N 38°31' W 010°03'816.4
2018-Feb-18 09:31N 38°39' W 010°05'816.1
2018-Feb-18 09:00N 38°47' W 010°06'816.2
2018-Feb-18 08:30N 38°55' W 010°07'816.4
2018-Feb-18 08:00N 39°03' W 010°07'816.2
2018-Feb-18 07:30N 39°11' W 010°08'815.7
2018-Feb-18 07:00N 39°19' W 010°08'815.6
2018-Feb-18 06:29N 39°27' W 010°08'715.5
2018-Feb-18 06:00N 39°34' W 010°08'54315.1
2018-Feb-16 18:02N 48°12' W 006°19'314.9
2018-Feb-16 17:52N 48°14' W 006°17'614.5
2018-Feb-16 17:26N 48°20' W 006°13'813.9
2018-Feb-16 16:51N 48°27' W 006°08'513.6
2018-Feb-16 16:28N 48°32' W 006°04'1313.2
2018-Feb-16 15:30N 48°43' W 005°55'813.1
2018-Feb-16 14:56N 48°50' W 005°49'612.8
2018-Feb-16 14:30N 48°54' W 005°43'813.3
2018-Feb-16 13:56N 48°57' W 005°33'813.8
2018-Feb-16 13:23N 49°02' W 005°24'914.6
2018-Feb-16 12:48N 49°06' W 005°13'414.8
2018-Feb-16 12:30N 49°08' W 005°07'1015.4
2018-Feb-16 11:53N 49°13' W 004°55'1915.7
2018-Feb-16 10:41N 49°23' W 004°30'4014.9
2018-Feb-16 08:01N 49°43' W 003°37'013.8
2018-Feb-16 08:00N 49°43' W 003°37'713.4
2018-Feb-16 07:30N 49°46' W 003°28'713.1
2018-Feb-16 07:00N 49°50' W 003°19'612.8
2018-Feb-16 06:30N 49°53' W 003°11'713.1
2018-Feb-16 06:00N 49°56' W 003°02'713.1
2018-Feb-16 05:31N 49°59' W 002°53'713.8
2018-Feb-16 05:00N 50°01' W 002°42'814.7
2018-Feb-16 04:29N 50°03' W 002°30'815.7
2018-Feb-16 03:57N 50°06' W 002°18'716.8
2018-Feb-16 03:30N 50°08' W 002°07'917.6
2018-Feb-16 03:00N 50°11' W 001°55'918.3
2018-Feb-16 02:30N 50°13' W 001°41'918.3
2018-Feb-16 02:01N 50°15' W 001°27'917.9
2018-Feb-16 01:30N 50°18' W 001°13'2516.8
2018-Feb-15 23:59N 50°25' W 000°35'815.6
2018-Feb-15 23:30N 50°26' W 000°23'714.9
2018-Feb-15 23:00N 50°27' W 000°12'714.3
2018-Feb-15 22:30N 50°29' W 000°01'713.8
2018-Feb-15 22:00N 50°30' E 000°10'713.5
2018-Feb-15 21:30N 50°32' E 000°20'713.5
2018-Feb-15 21:00N 50°34' E 000°30'713.4
2018-Feb-15 20:30N 50°37' E 000°39'714.6
2018-Feb-15 20:00N 50°42' E 000°48'815.4
2018-Feb-15 19:30N 50°47' E 000°57'816.6
2018-Feb-15 19:01N 50°53' E 001°07'917.2
2018-Feb-15 18:30N 50°59' E 001°17'917.9
2018-Feb-15 18:00N 51°04' E 001°28'917.3
2018-Feb-15 17:30N 51°10' E 001°39'817.0
2018-Feb-15 17:00N 51°16' E 001°47'816.2
2018-Feb-15 16:30N 51°23' E 001°55'713.7
2018-Feb-15 16:00N 51°23' E 002°06'815.7
2018-Feb-15 15:31N 51°20' E 002°18'815.1
2018-Feb-15 15:00N 51°23' E 002°30'815.3
2018-Feb-15 14:30N 51°23' E 002°42'4 7.9
2018-Feb-15 14:00N 51°22' E 002°48'714.3
2018-Feb-15 13:30N 51°23' E 002°59'713.6
2018-Feb-15 13:00N 51°24' E 003°10'714.0
2018-Feb-15 12:30N 51°24' E 003°21'612.8
2018-Feb-15 12:00N 51°25' E 003°32'4 7.7
2018-Feb-15 11:30N 51°26' E 003°37'5 9.9
2018-Feb-15 11:00N 51°23' E 003°43'612.3
2018-Feb-15 10:30N 51°21' E 003°53'612.5
2018-Feb-15 10:00N 51°26' E 003°59'611.6
2018-Feb-15 09:31N 51°22' E 004°06'510.0
2018-Feb-15 09:00N 51°22' E 004°14'4 8.6
2018-Feb-15 08:30N 51°17' E 004°16'1 1.7
2018-Feb-15 08:00N 51°17' E 004°15'0 0.0
2018-Feb-15 07:30N 51°17' E 004°15'1 1.6
2018-Feb-15 07:00N 51°17' E 004°14'1 1.3
2018-Feb-15 06:29N 51°16' E 004°13'0 0.0
2018-Feb-15 05:59N 51°16' E 004°13'0 0.0
2018-Feb-15 05:23N 51°16' E 004°13'0 0.0
2018-Feb-15 04:59N 51°16' E 004°13'0 0.0
2018-Feb-15 04:26N 51°16' E 004°13'0 0.0
2018-Feb-15 03:59N 51°16' E 004°13'0 0.0
2018-Feb-15 03:26N 51°16' E 004°13'0 0.0
2018-Feb-15 02:59N 51°16' E 004°13'0 0.0
2018-Feb-15 02:29N 51°16' E 004°13'0 0.0
2018-Feb-15 01:59N 51°16' E 004°13'0 0.0
2018-Feb-15 01:29N 51°16' E 004°13'0 0.0
2018-Feb-15 00:59N 51°16' E 004°13'0 0.0
2018-Feb-15 00:29N 51°16' E 004°13'0 0.0
2018-Feb-14 23:59N 51°16' E 004°13'0 0.0
2018-Feb-14 23:29N 51°16' E 004°13'0 0.0
2018-Feb-14 22:59N 51°16' E 004°13'0 0.0
2018-Feb-14 22:29N 51°16' E 004°13'0 0.0
2018-Feb-14 21:59N 51°16' E 004°13'0 0.0
2018-Feb-14 21:29N 51°16' E 004°13'0 0.0
2018-Feb-14 20:59N 51°16' E 004°13'0 0.0
2018-Feb-14 20:29N 51°16' E 004°13'0 0.0
2018-Feb-14 19:59N 51°16' E 004°13'0 0.0
2018-Feb-14 19:26N 51°16' E 004°13'0 0.0
2018-Feb-14 18:56N 51°16' E 004°13'0 0.0
2018-Feb-14 18:29N 51°16' E 004°13'0 0.0
2018-Feb-14 17:56N 51°16' E 004°13'0 0.0
2018-Feb-14 17:29N 51°16' E 004°13'0 0.0
2018-Feb-14 16:59N 51°16' E 004°13'0 0.0
2018-Feb-14 16:29N 51°16' E 004°13'0 0.0
2018-Feb-14 15:59N 51°16' E 004°13'0 0.0
2018-Feb-14 15:29N 51°16' E 004°13'0 0.0
2018-Feb-14 14:59N 51°16' E 004°13'0 0.0
2018-Feb-14 14:29N 51°16' E 004°13'0 0.0
2018-Feb-14 13:59N 51°16' E 004°13'0 0.0
2018-Feb-14 13:29N 51°16' E 004°13'0 0.0
2018-Feb-14 12:59N 51°16' E 004°13'0 0.0
2018-Feb-14 12:29N 51°16' E 004°13'0 0.0
2018-Feb-14 11:56N 51°16' E 004°13'0 0.0
2018-Feb-14 11:29N 51°16' E 004°13'0 0.0
2018-Feb-14 10:59N 51°16' E 004°13'0 0.0
2018-Feb-14 10:26N 51°16' E 004°13'0 0.0
2018-Feb-14 09:59N 51°16' E 004°13'0 0.0
2018-Feb-14 09:29N 51°16' E 004°13'0 0.0
2018-Feb-14 08:59N 51°16' E 004°13'0 0.0
2018-Feb-14 08:29N 51°16' E 004°13'0 0.0
2018-Feb-14 07:59N 51°16' E 004°13'0 0.0
2018-Feb-14 07:29N 51°16' E 004°13'0 0.0
2018-Feb-14 06:56N 51°16' E 004°13'0 0.0
2018-Feb-14 06:29N 51°16' E 004°13'0 0.0
2018-Feb-14 05:59N 51°16' E 004°13'0 0.0
2018-Feb-14 05:29N 51°16' E 004°13'0 0.0
2018-Feb-14 04:59N 51°16' E 004°13'0 0.0
2018-Feb-14 04:29N 51°16' E 004°13'0 0.0
2018-Feb-14 03:59N 51°16' E 004°13'0 0.0
2018-Feb-14 03:29N 51°16' E 004°13'0 0.0
2018-Feb-14 02:59N 51°16' E 004°13'0 0.0
2018-Feb-14 02:29N 51°16' E 004°13'0 0.0
2018-Feb-14 01:59N 51°16' E 004°13'0 0.0
2018-Feb-14 01:29N 51°16' E 004°13'0 0.0
2018-Feb-14 00:59N 51°16' E 004°13'0 0.0
2018-Feb-14 00:29N 51°16' E 004°13'0 0.0
2018-Feb-13 23:59N 51°16' E 004°13'0 0.0
2018-Feb-13 23:29N 51°16' E 004°13'1 1.2
2018-Feb-13 23:00N 51°17' E 004°13'2 4.4
2018-Feb-13 22:30N 51°16' E 004°17'0 0.0
2018-Feb-13 22:00N 51°16' E 004°17'1 1.8
2018-Feb-13 21:31N 51°16' E 004°18'4 7.9
2018-Feb-13 21:01N 51°20' E 004°17'510.6
2018-Feb-13 20:30N 51°23' E 004°10'611.3
2018-Feb-13 20:01N 51°25' E 004°02'612.3
2018-Feb-13 19:31N 51°22' E 003°54'611.9
2018-Feb-13 18:59N 51°22' E 003°44'511.1
2018-Feb-13 18:30N 51°26' E 003°38'510.4
2018-Feb-13 18:00N 51°25' E 003°30'1 2.5
2018-Feb-13 17:30N 51°26' E 003°32'4 7.8
2018-Feb-13 17:00N 51°26' E 003°38'2 4.6
2018-Feb-13 16:28N 51°28' E 003°41'0 0.0
2018-Feb-13 15:55N 51°28' E 003°41'0 0.0
2018-Feb-13 15:28N 51°28' E 003°41'0 0.0
2018-Feb-13 14:55N 51°28' E 003°41'0 0.0
2018-Feb-13 14:25N 51°28' E 003°41'0 0.0
2018-Feb-13 13:55N 51°28' E 003°41'0 0.0
2018-Feb-13 13:22N 51°28' E 003°41'0 0.0
2018-Feb-13 12:55N 51°28' E 003°41'0 0.0
2018-Feb-13 12:25N 51°28' E 003°41'0 0.0
2018-Feb-13 11:58N 51°28' E 003°41'0 0.0
2018-Feb-13 11:25N 51°28' E 003°41'0 0.0
2018-Feb-13 10:58N 51°28' E 003°41'0 0.0
2018-Feb-13 10:28N 51°28' E 003°41'0 0.0
2018-Feb-13 09:58N 51°28' E 003°41'0 0.0
2018-Feb-13 09:28N 51°28' E 003°41'0 0.0
2018-Feb-13 08:58N 51°28' E 003°41'0 0.0
2018-Feb-13 08:28N 51°28' E 003°41'0 0.0
2018-Feb-13 07:58N 51°28' E 003°41'0 0.0
2018-Feb-13 07:19N 51°28' E 003°41'0 0.0
2018-Feb-13 06:58N 51°28' E 003°41'0 0.0
2018-Feb-13 06:28N 51°28' E 003°41'0 0.0
2018-Feb-13 05:58N 51°28' E 003°41'0 0.0
2018-Feb-13 05:28N 51°28' E 003°41'0 0.0
2018-Feb-13 04:55N 51°28' E 003°41'0 0.0
2018-Feb-13 04:28N 51°28' E 003°41'0 0.0
2018-Feb-13 03:55N 51°28' E 003°41'0 0.0
2018-Feb-13 03:28N 51°28' E 003°41'0 0.0
2018-Feb-13 02:58N 51°28' E 003°41'0 0.0
2018-Feb-13 02:28N 51°28' E 003°41'0 0.0
2018-Feb-13 01:55N 51°28' E 003°41'0 0.0
2018-Feb-13 01:25N 51°28' E 003°41'0 0.0
2018-Feb-13 00:58N 51°28' E 003°41'0 0.0
2018-Feb-13 00:19N 51°28' E 003°41'0 0.0
2018-Feb-12 23:58N 51°28' E 003°41'0 0.0
2018-Feb-12 23:25N 51°28' E 003°41'0 0.0
2018-Feb-12 22:58N 51°28' E 003°41'0 0.0
2018-Feb-12 22:28N 51°28' E 003°41'0 0.0
2018-Feb-12 21:58N 51°28' E 003°41'0 0.0
2018-Feb-12 21:28N 51°28' E 003°41'0 0.0
2018-Feb-12 20:58N 51°28' E 003°41'0 0.0
2018-Feb-12 20:28N 51°28' E 003°41'0 0.9
2018-Feb-12 20:00N 51°27' E 003°41'3 5.4
2018-Feb-12 19:30N 51°26' E 003°37'713.4
2018-Feb-12 19:00N 51°25' E 003°26'714.8
2018-Feb-12 18:30N 51°25' E 003°15'714.3
2018-Feb-12 18:00N 51°24' E 003°03'510.7
2018-Feb-12 17:30N 51°30' E 003°03'815.4
2018-Feb-12 17:00N 51°36' E 003°10'813.7
2018-Feb-12 16:27N 51°43' E 003°14'2613.5
2018-Feb-12 14:29N 52°09' E 003°22'6313.6
2018-Feb-12 09:50N 53°04' E 004°13'514.7
2018-Feb-12 09:31N 53°07' E 004°19'13712.1
2018-Feb-11 22:09N 54°01' E 007°52'211.9
2018-Feb-11 22:00N 54°01' E 007°55'612.9
2018-Feb-11 21:30N 54°00' E 008°06'712.9
2018-Feb-11 20:59N 54°00' E 008°17'511.3
2018-Feb-11 20:30N 53°59' E 008°26'714.8
2018-Feb-11 20:00N 53°57' E 008°38'713.2
2018-Feb-11 19:30N 53°52' E 008°45'510.9
2018-Feb-11 19:01N 53°51' E 008°54'612.5
2018-Feb-11 18:31N 53°52' E 009°04'611.2
2018-Feb-11 18:01N 53°53' E 009°13'714.1
2018-Feb-11 17:31N 53°48' E 009°23'815.0
2018-Feb-11 17:00N 53°42' E 009°30'612.8
2018-Feb-11 16:31N 53°36' E 009°35'612.4
2018-Feb-11 16:01N 53°34' E 009°44'612.0
2018-Feb-11 15:30N 53°33' E 009°54'3 6.7
2018-Feb-11 14:59N 53°32' E 009°60'0 0.0
2018-Feb-11 14:29N 53°32' E 009°60'0 0.0
2018-Feb-11 13:59N 53°32' E 009°60'0 0.0
2018-Feb-11 13:29N 53°32' E 009°60'0 0.0
2018-Feb-11 12:59N 53°32' E 009°60'0 0.0
2018-Feb-11 12:29N 53°32' E 009°60'0 0.0
2018-Feb-11 11:59N 53°32' E 009°60'0 0.0
2018-Feb-11 11:30N 53°32' E 009°60'0 0.0
2018-Feb-11 11:00N 53°32' E 009°60'0 0.0
2018-Feb-11 10:30N 53°32' E 009°60'0 0.0
2018-Feb-11 10:00N 53°32' E 009°60'0 0.0
2018-Feb-11 09:31N 53°32' E 009°60'0 0.0
2018-Feb-11 09:00N 53°32' E 009°60'0 0.0
2018-Feb-11 08:30N 53°32' E 009°60'0 0.0
2018-Feb-11 08:00N 53°32' E 009°60'0 0.0
2018-Feb-11 07:31N 53°32' E 009°60'0 0.0
2018-Feb-11 07:01N 53°32' E 009°60'0 0.0
2018-Feb-11 06:30N 53°32' E 009°60'0 0.0
2018-Feb-11 06:00N 53°32' E 009°60'0 0.0
2018-Feb-11 05:30N 53°32' E 009°60'0 0.0
2018-Feb-11 05:01N 53°32' E 009°60'0 0.0
2018-Feb-11 04:30N 53°32' E 009°60'0 0.0
2018-Feb-11 04:00N 53°32' E 009°60'0 0.0
2018-Feb-11 03:30N 53°32' E 009°60'0 0.0
2018-Feb-11 03:01N 53°32' E 009°60'0 0.0
2018-Feb-11 02:30N 53°32' E 009°60'0 0.0
2018-Feb-11 02:00N 53°32' E 009°60'0 0.0
2018-Feb-11 01:30N 53°32' E 009°60'0 0.0
2018-Feb-11 01:00N 53°32' E 009°60'0 0.0
2018-Feb-11 00:30N 53°32' E 009°60'0 0.0
2018-Feb-11 00:01N 53°32' E 009°60'0 0.0
2018-Feb-10 23:30N 53°32' E 009°60'0 0.0
2018-Feb-10 23:00N 53°32' E 009°60'0 0.3
2018-Feb-10 22:30N 53°32' E 009°60'2 4.2
2018-Feb-10 22:00N 53°32' E 009°56'3 5.9
2018-Feb-10 21:31N 53°33' E 009°51'4 7.0
2018-Feb-10 21:00N 53°34' E 009°46'611.0
2018-Feb-10 20:30N 53°35' E 009°37'611.1
2018-Feb-10 20:00N 53°40' E 009°31'612.2
2018-Feb-10 19:30N 53°45' E 009°25'713.0
2018-Feb-10 19:00N 53°50' E 009°20'612.7
2018-Feb-10 18:30N 53°53' E 009°10'4 8.8
2018-Feb-10 18:00N 53°52' E 009°03'713.0
2018-Feb-10 17:30N 53°50' E 008°52'611.5
2018-Feb-10 17:00N 53°52' E 008°43'613.1
2018-Feb-10 16:30N 53°58' E 008°36'815.3
2018-Feb-10 16:00N 53°59' E 008°24'815.3
2018-Feb-10 15:30N 53°60' E 008°11'4 7.2
2018-Feb-10 15:00N 53°59' E 008°04'4 7.2
2018-Feb-10 14:30N 53°58' E 007°59'4 7.3
2018-Feb-10 14:00N 53°57' E 007°52'10412.8
2018-Feb-10 05:54N 53°29' E 005°04'716.5
2018-Feb-10 05:29N 53°26' E 004°53'1615.7
2018-Feb-10 04:27N 53°14' E 004°35'816.8
2018-Feb-10 04:00N 53°07' E 004°29'816.5
2018-Feb-10 03:30N 53°00' E 004°23'816.6
2018-Feb-10 03:00N 52°53' E 004°17'916.5
2018-Feb-10 02:29N 52°46' E 004°08'816.5
2018-Feb-10 02:00N 52°40' E 003°59'916.6
2018-Feb-10 01:27N 52°33' E 003°49'916.6
2018-Feb-10 00:55N 52°27' E 003°40'716.6
2018-Feb-10 00:30N 52°22' E 003°32'816.6
2018-Feb-10 00:01N 52°16' E 003°22'3516.2
2018-Feb-09 21:51N 51°51' E 002°42'3715.9
2018-Feb-09 19:31N 51°20' E 002°09'815.1
2018-Feb-09 19:00N 51°13' E 002°04'917.4
2018-Feb-09 18:30N 51°09' E 001°51'917.5
2018-Feb-09 18:00N 51°03' E 001°42'918.2
2018-Feb-09 17:31N 50°56' E 001°32'7015.5
2018-Feb-09 13:00N 50°22' W 000°04'816.9
2018-Feb-09 12:30N 50°25' W 000°16'816.7
2018-Feb-09 12:00N 50°29' W 000°27'  

Dump ship's entire track history